Time;durP1;ratioP1;P1;durP2;ratioP2;P2;SDS_P1;SDS_P2;PMS_P1;PMS_P2;Temp;Humidity;BMP_temperature;BMP_pressure;BME280_temperature;BME280_humidity;BME280_pressure;Samples;Min_cycle;Max_cycle;Signal;HPM_P1;HPM_P2
2023/07/16 00:00:33;;;;;;;4.82;2.38;;;;;;;15.69;100.00;100758.59;5009638;28;20076;-61
2023/07/16 00:02:58;;;;;;;7.38;2.40;;;;;;;15.60;100.00;100762.88;5002270;28;20466;-62
2023/07/16 00:05:23;;;;;;;8.70;3.65;;;;;;;15.49;100.00;100761.88;4990429;28;20026;-62
2023/07/16 00:07:48;;;;;;;6.18;2.92;;;;;;;15.42;100.00;100768.78;4997514;28;20065;-61
2023/07/16 00:10:14;;;;;;;7.05;2.40;;;;;;;15.32;100.00;100770.44;5009529;28;20021;-62
2023/07/16 00:12:39;;;;;;;6.20;2.45;;;;;;;15.25;100.00;100766.00;4990992;28;20022;-63
2023/07/16 00:15:06;;;;;;;7.93;3.17;;;;;;;15.19;100.00;100768.50;4990588;28;20509;-61
2023/07/16 00:17:33;;;;;;;7.35;3.03;;;;;;;15.11;100.00;100766.69;4997321;28;20236;-61
2023/07/16 00:19:58;;;;;;;4.55;2.90;;;;;;;15.08;100.00;100765.78;5008721;28;20053;-62
2023/07/16 00:22:24;;;;;;;9.35;2.95;;;;;;;15.06;100.00;100767.47;5009241;28;20060;-62
2023/07/16 00:24:49;;;;;;;6.93;2.60;;;;;;;15.03;100.00;100776.16;5008671;28;20026;-62
2023/07/16 00:27:14;;;;;;;4.38;2.85;;;;;;;14.98;100.00;100775.25;5009503;28;20189;-62
2023/07/16 00:29:40;;;;;;;6.90;2.92;;;;;;;14.95;100.00;100775.22;5008430;28;20041;-63
2023/07/16 00:32:05;;;;;;;8.10;4.47;;;;;;;14.93;100.00;100772.56;5009279;28;20060;-62
2023/07/16 00:34:30;;;;;;;7.80;4.40;;;;;;;14.91;100.00;100768.19;5008038;28;20293;-60
2023/07/16 00:37:01;;;;;;;6.25;4.13;;;;;;;14.85;100.00;100774.19;5009234;28;20120;-61
2023/07/16 00:39:27;;;;;;;6.90;4.35;;;;;;;14.85;100.00;100774.19;5008009;28;20041;-62
2023/07/16 00:41:52;;;;;;;9.63;4.30;;;;;;;14.84;100.00;100778.53;5008828;28;20514;-61
2023/07/16 00:44:17;;;;;;;5.35;4.13;;;;;;;14.85;100.00;100780.28;5007145;28;20026;-62
2023/07/16 00:46:43;;;;;;;6.57;3.70;;;;;;;14.86;100.00;100776.81;4995810;28;20627;-62
2023/07/16 00:49:08;;;;;;;7.20;4.40;;;;;;;14.87;100.00;100786.41;4995765;28;20030;-62
2023/07/16 00:51:34;;;;;;;5.82;2.92;;;;;;;14.89;100.00;100781.22;5002198;28;20030;-61
2023/07/16 00:54:00;;;;;;;5.13;3.35;;;;;;;14.91;100.00;100769.06;4992925;28;20084;-62
2023/07/16 00:56:26;;;;;;;7.43;3.00;;;;;;;14.91;100.00;100769.06;4993509;28;20030;-61
2023/07/16 00:58:51;;;;;;;9.95;2.80;;;;;;;14.92;100.00;100769.94;4993153;28;20092;-62
2023/07/16 01:01:17;;;;;;;9.55;2.33;;;;;;;14.88;100.00;100762.06;4996265;28;20125;-61
2023/07/16 01:03:42;;;;;;;8.32;2.40;;;;;;;14.86;100.00;100770.72;4995368;28;20026;-61
2023/07/16 01:06:16;;;;;;;7.47;2.55;;;;;;;14.86;100.00;100782.03;4997810;28;20478;-61
2023/07/16 01:08:46;;;;;;;6.20;2.80;;;;;;;14.85;100.00;100775.06;4991246;28;20033;-62
2023/07/16 01:11:12;;;;;;;5.60;2.58;;;;;;;14.86;100.00;100783.75;4993063;28;20109;-62
2023/07/16 01:13:38;;;;;;;7.05;2.55;;;;;;;14.85;100.00;100775.06;4994597;28;20109;-62
2023/07/16 01:16:04;;;;;;;5.68;3.00;;;;;;;14.86;100.00;100770.72;4994259;28;20494;-62
2023/07/16 01:18:29;;;;;;;8.70;2.55;;;;;;;14.88;100.00;100782.06;5004578;28;20030;-61
2023/07/16 01:20:54;;;;;;;4.93;2.72;;;;;;;14.88;100.00;100769.91;4994091;28;20458;-61
2023/07/16 01:23:50;;;;;;;8.05;3.47;;;;;;;14.81;100.00;100770.66;4994116;28;20030;-63
2023/07/16 01:26:53;;;;;;;7.57;2.92;;;;;;;14.84;100.00;100773.31;4997078;28;20038;-62
2023/07/16 01:29:28;;;;;;;8.38;2.85;;;;;;;14.84;100.00;100762.88;4999161;28;20105;-61
2023/07/16 01:31:55;;;;;;;8.07;3.33;;;;;;;14.83;100.00;100753.31;4997881;28;20174;-62
2023/07/16 01:34:21;;;;;;;10.45;3.78;;;;;;;14.84;100.00;100765.47;5005849;28;20026;-62
2023/07/16 01:36:49;;;;;;;9.80;4.40;;;;;;;14.85;100.00;100764.66;4989938;28;20463;-62
2023/07/16 01:39:14;;;;;;;9.80;4.80;;;;;;;14.86;100.00;100757.69;5007414;28;20025;-62
2023/07/16 01:41:39;;;;;;;8.05;4.30;;;;;;;14.86;100.00;100761.16;4995868;28;20100;-61
2023/07/16 01:44:05;;;;;;;10.18;4.70;;;;;;;14.85;100.00;100764.66;4988887;28;20026;-62
2023/07/16 01:46:32;;;;;;;6.43;3.95;;;;;;;14.86;100.00;100761.16;4997324;28;20080;-62
2023/07/16 01:48:57;;;;;;;11.05;4.65;;;;;;;14.87;100.00;100767.28;5007834;28;20449;-61
2023/07/16 01:51:22;;;;;;;8.60;5.40;;;;;;;14.91;100.00;100770.78;5007454;28;20105;-62
2023/07/16 01:53:48;;;;;;;8.68;5.70;;;;;;;14.95;100.00;100783.03;5007106;28;20030;-61
2023/07/16 01:56:13;;;;;;;6.07;4.90;;;;;;;14.95;100.00;100777.81;5007726;28;20094;-62
2023/07/16 01:58:38;;;;;;;8.15;5.53;;;;;;;14.97;100.00;100778.69;5006823;28;20037;-62
2023/07/16 02:01:04;;;;;;;10.20;4.97;;;;;;;14.97;100.00;100766.53;5007791;28;20462;-61
2023/07/16 02:03:29;;;;;;;8.90;5.13;;;;;;;14.99;100.00;100759.59;5007305;28;20029;-61
2023/07/16 02:05:54;;;;;;;9.68;5.10;;;;;;;15.03;100.00;100768.34;4993847;28;20236;-62
2023/07/16 02:08:20;;;;;;;8.55;5.60;;;;;;;15.05;100.00;100765.75;4987734;28;20037;-62
2023/07/16 02:10:48;;;;;;;6.40;4.70;;;;;;;15.05;100.00;100761.41;5001582;28;20036;-62
2023/07/16 02:13:13;;;;;;;6.45;4.63;;;;;;;15.07;100.00;100770.13;4988821;28;20026;-61
2023/07/16 02:15:38;;;;;;;6.40;4.70;;;;;;;15.07;100.00;100764.94;5006287;28;20478;-61
2023/07/16 02:18:04;;;;;;;6.78;3.42;;;;;;;15.09;100.00;100771.00;5007561;28;20469;-61
2023/07/16 02:20:30;;;;;;;7.10;3.83;;;;;;;15.07;100.00;100770.13;5007175;28;20101;-62
2023/07/16 02:22:55;;;;;;;4.88;3.35;;;;;;;15.09;100.00;100773.63;5007908;28;20030;-62
2023/07/16 02:25:21;;;;;;;9.95;4.13;;;;;;;15.09;100.00;100775.38;5002063;28;20050;-61
2023/07/16 02:27:46;;;;;;;6.82;3.15;;;;;;;15.11;100.00;100782.34;4988317;28;20030;-61
2023/07/16 02:30:11;;;;;;;6.07;3.63;;;;;;;15.11;100.00;100771.91;5001792;28;20355;-60
2023/07/16 02:32:36;;;;;;;8.02;3.67;;;;;;;15.15;100.00;100777.19;5000478;28;20069;-61
2023/07/16 02:35:03;;;;;;;7.47;3.50;;;;;;;15.12;100.00;100786.72;5003986;28;20291;-61
2023/07/16 02:37:28;;;;;;;5.78;3.38;;;;;;;15.15;100.00;100792.84;5004811;28;20022;-61
2023/07/16 02:39:54;;;;;;;9.32;3.85;;;;;;;15.18;100.00;100790.25;4994863;28;20418;-63
2023/07/16 02:42:19;;;;;;;5.63;3.40;;;;;;;15.20;100.00;100799.00;4988457;28;20081;-62
2023/07/16 02:44:44;;;;;;;7.30;3.67;;;;;;;15.18;100.00;100803.31;4987817;28;20163;-62
2023/07/16 02:47:13;;;;;;;6.80;3.42;;;;;;;15.16;100.00;100798.09;4988203;28;20030;-61
2023/07/16 02:49:38;;;;;;;6.97;3.63;;;;;;;15.16;100.00;100798.09;4988445;28;20036;-62
2023/07/16 02:52:05;;;;;;;10.85;4.03;;;;;;;15.15;100.00;100793.69;4988632;28;20018;-61
2023/07/16 02:54:30;;;;;;;6.78;3.08;;;;;;;15.16;100.00;100789.38;4988680;28;20489;-62
2023/07/16 02:56:55;;;;;;;9.13;3.50;;;;;;;15.08;100.00;100795.38;4987796;28;20044;-61
2023/07/16 02:59:21;;;;;;;5.72;3.22;;;;;;;15.10;100.00;100798.88;4988257;28;20019;-62
2023/07/16 03:01:46;;;;;;;5.55;3.38;;;;;;;15.07;100.00;100801.44;4990310;28;20030;-61
2023/07/16 03:04:11;;;;;;;7.13;4.20;;;;;;;15.08;100.00;100807.53;4991811;28;20113;-61
2023/07/16 03:06:37;;;;;;;11.23;4.80;;;;;;;15.02;100.00;100800.50;5003482;28;20533;-61
2023/07/16 03:09:03;;;;;;;6.50;3.40;;;;;;;14.99;100.00;100801.34;4995503;28;20101;-62
2023/07/16 03:11:28;;;;;;;8.45;3.38;;;;;;;15.01;100.00;100801.34;4995163;28;20023;-61
2023/07/16 03:13:53;;;;;;;7.07;3.05;;;;;;;14.97;100.00;100805.66;4998746;28;20032;-62
2023/07/16 03:16:19;;;;;;;12.45;3.30;;;;;;;14.93;100.00;100809.06;4997179;28;20519;-62
2023/07/16 03:18:48;;;;;;;8.82;3.45;;;;;;;14.96;100.00;100813.47;5000923;28;20014;-61
2023/07/16 03:21:13;;;;;;;8.10;3.22;;;;;;;14.91;100.00;100816.03;4997102;28;20394;-62
2023/07/16 03:23:38;;;;;;;5.20;2.85;;;;;;;14.93;100.00;100819.50;5001674;28;20055;-62
2023/07/16 03:26:03;;;;;;;6.80;3.53;;;;;;;14.94;100.00;100821.28;4997210;28;20479;-62
2023/07/16 03:28:29;;;;;;;10.05;3.67;;;;;;;14.86;100.00;100818.56;5000602;28;20022;-62
2023/07/16 03:30:54;;;;;;;4.40;3.28;;;;;;;14.81;100.00;100820.22;4995507;28;20366;-62
2023/07/16 03:33:20;;;;;;;9.27;3.83;;;;;;;14.84;100.00;100817.66;4999815;28;20028;-62
2023/07/16 03:35:46;;;;;;;14.32;4.38;;;;;;;14.77;100.00;100824.50;4996261;28;20034;-61
2023/07/16 03:38:12;;;;;;;7.38;3.95;;;;;;;14.76;100.00;100824.47;5006181;28;20501;-62
2023/07/16 03:40:38;;;;;;;9.20;3.83;;;;;;;14.76;100.00;100824.47;4989379;28;20038;-62
2023/07/16 03:43:04;;;;;;;7.43;3.50;;;;;;;14.71;100.00;100831.34;4989742;28;20404;-61
2023/07/16 03:45:29;;;;;;;8.75;4.00;;;;;;;14.67;100.00;100837.38;5008623;28;20476;-61
2023/07/16 03:47:55;;;;;;;10.55;4.00;;;;;;;14.63;100.00;100834.72;5010203;28;20501;-61
2023/07/16 03:50:20;;;;;;;8.02;3.67;;;;;;;14.52;100.00;100837.16;5009694;28;20026;-63
2023/07/16 03:52:45;;;;;;;7.78;4.03;;;;;;;14.53;100.00;100832.84;4997531;28;20034;-62
2023/07/16 03:55:11;;;;;;;9.07;3.80;;;;;;;14.52;100.00;100844.97;4990408;28;20028;-62
2023/07/16 03:57:36;;;;;;;7.72;3.63;;;;;;;14.45;100.00;100839.63;4999649;28;20056;-61
2023/07/16 04:00:09;;;;;;;7.78;3.22;;;;;;;14.45;100.00;100852.69;5005597;28;20026;-61
2023/07/16 04:02:34;;;;;;;7.93;3.63;;;;;;;14.38;100.00;100847.38;5001577;28;20019;-62
2023/07/16 04:05:00;;;;;;;9.85;3.60;;;;;;;14.36;100.00;100849.06;5005994;28;20096;-62
2023/07/16 04:07:25;;;;;;;10.38;4.03;;;;;;;14.33;100.00;100859.47;5004233;28;20044;-61
2023/07/16 04:09:51;;;;;;;6.55;3.33;;;;;;;14.32;100.00;100862.91;4999854;28;20042;-61
2023/07/16 04:12:17;;;;;;;8.32;3.90;;;;;;;14.33;100.00;100863.78;4994149;28;20018;-62
2023/07/16 04:14:42;;;;;;;6.82;3.58;;;;;;;14.34;100.00;100871.63;4992427;28;20474;-61
2023/07/16 04:17:07;;;;;;;6.75;4.38;;;;;;;14.29;100.00;100865.47;4995917;28;20021;-60
2023/07/16 04:19:33;;;;;;;9.18;3.60;;;;;;;14.29;100.00;100878.50;5002000;28;20046;-61
2023/07/16 04:21:59;;;;;;;10.32;3.80;;;;;;;14.32;100.00;100886.34;4994887;28;20095;-60
2023/07/16 04:24:26;;;;;;;6.65;3.88;;;;;;;14.32;100.00;100882.91;4992153;28;20049;-62
2023/07/16 04:26:52;;;;;;;9.90;4.20;;;;;;;14.23;100.00;100897.50;4994734;28;20021;-61
2023/07/16 04:29:18;;;;;;;8.43;4.35;;;;;;;14.24;100.00;100895.78;4997353;28;20045;-61
2023/07/16 04:31:43;;;;;;;7.43;4.00;;;;;;;14.18;100.00;100896.53;4998321;28;20041;-61
2023/07/16 04:34:09;;;;;;;9.32;4.43;;;;;;;14.16;100.00;100890.44;4996671;28;20094;-60
2023/07/16 04:36:34;;;;;;;8.57;3.90;;;;;;;14.13;100.00;100893.88;4998337;28;20026;-61
2023/07/16 04:38:59;;;;;;;8.98;4.35;;;;;;;14.11;100.00;100906.00;5004075;28;20027;-62
2023/07/16 04:41:24;;;;;;;8.95;4.97;;;;;;;14.11;100.00;100905.09;4990141;28;20060;-61
2023/07/16 04:43:50;;;;;;;8.15;4.57;;;;;;;14.11;100.00;100902.50;5007567;28;20037;-61
2023/07/16 04:46:16;;;;;;;6.97;4.05;;;;;;;14.10;100.00;100904.25;5007982;28;20131;-60
2023/07/16 04:48:41;;;;;;;9.70;4.80;;;;;;;14.11;100.00;100905.09;5008605;28;20028;-61
2023/07/16 04:51:07;;;;;;;7.47;4.43;;;;;;;14.15;100.00;100906.91;5008542;28;20014;-61
2023/07/16 04:53:32;;;;;;;11.15;5.20;;;;;;;14.16;100.00;100909.56;5007841;28;20569;-61
2023/07/16 04:55:57;;;;;;;6.97;4.43;;;;;;;14.15;100.00;100920.84;5009542;28;20022;-60
2023/07/16 04:58:23;;;;;;;11.18;4.95;;;;;;;14.16;100.00;100919.09;5008485;28;20020;-61
2023/07/16 05:00:49;;;;;;;9.07;4.45;;;;;;;14.19;100.00;100918.28;5008538;28;20045;-61
2023/07/16 05:03:14;;;;;;;6.65;5.30;;;;;;;14.23;100.00;100920.97;5008007;28;20496;-61
2023/07/16 05:05:39;;;;;;;9.90;5.00;;;;;;;14.24;100.00;100927.06;5007986;28;20029;-60
2023/07/16 05:08:05;;;;;;;13.18;5.70;;;;;;;14.29;100.00;100926.28;5008387;28;20482;-61
2023/07/16 05:10:30;;;;;;;10.05;5.40;;;;;;;14.31;100.00;100926.31;4993908;28;20080;-61
2023/07/16 05:12:55;;;;;;;9.80;5.38;;;;;;;14.31;100.00;100918.50;4989981;28;20026;-61
2023/07/16 05:15:21;;;;;;;11.43;5.38;;;;;;;14.39;100.00;100923.84;4990899;28;20071;-61
2023/07/16 05:17:46;;;;;;;12.48;5.10;;;;;;;14.41;100.00;100925.63;4990114;28;20030;-61
2023/07/16 05:20:12;;;;;;;13.48;5.68;;;;;;;14.50;100.00;100929.22;4989663;28;20033;-61
2023/07/16 05:22:37;;;;;;;13.77;5.63;;;;;;;14.53;100.00;100929.31;4990275;28;20558;-60
2023/07/16 05:25:03;;;;;;;8.45;4.80;;;;;;;14.58;100.00;100935.47;4991814;28;20026;-60
2023/07/16 05:27:28;;;;;;;11.88;5.13;;;;;;;14.61;100.00;100932.91;4999286;28;20018;-60
2023/07/16 05:29:54;;;;;;;8.95;4.80;;;;;;;14.68;100.00;100933.03;4990652;28;20025;-60
2023/07/16 05:32:19;;;;;;;10.45;4.93;;;;;;;14.73;100.00;100933.97;4990229;28;20050;-61
2023/07/16 05:34:44;;;;;;;9.02;4.22;;;;;;;14.77;100.00;100938.38;4996311;28;20169;-61
2023/07/16 05:37:10;;;;;;;7.90;4.78;;;;;;;14.81;100.00;100932.41;4991204;28;20041;-61
2023/07/16 05:39:35;;;;;;;10.38;5.30;;;;;;;14.84;100.00;100939.41;5002997;28;20473;-61
2023/07/16 05:42:02;;;;;;;10.55;5.72;;;;;;;14.91;100.00;100935.16;4996918;28;20261;-61
2023/07/16 05:44:28;;;;;;;10.27;4.90;;;;;;;14.96;100.00;100944.81;4996624;28;20088;-61
2023/07/16 05:46:53;;;;;;;9.00;5.60;;;;;;;15.02;100.00;100948.38;4997114;28;20034;-61
2023/07/16 05:49:18;;;;;;;8.38;5.20;;;;;;;15.06;100.00;100951.03;4998544;28;20437;-61
2023/07/16 05:51:44;;;;;;;7.38;5.32;;;;;;;15.12;100.00;100945.91;4995910;28;20386;-61
2023/07/16 05:54:09;;;;;;;9.07;5.45;;;;;;;15.21;100.00;100954.72;4998251;28;20032;-62
2023/07/16 05:56:34;;;;;;;9.15;5.63;;;;;;;15.26;100.00;100953.06;4989813;28;20033;-61
2023/07/16 05:59:00;;;;;;;8.45;5.70;;;;;;;15.39;100.00;100950.63;4998990;28;20101;-61
2023/07/16 06:01:25;;;;;;;13.90;6.28;;;;;;;15.50;100.00;100962.09;4991337;28;20076;-61
2023/07/16 06:03:50;;;;;;;10.77;4.93;;;;;;;15.59;100.00;100967.47;4999831;28;20135;-61
2023/07/16 06:06:15;;;;;;;10.20;5.57;;;;;;;15.70;100.00;100970.19;4991888;28;20026;-61
2023/07/16 06:08:41;;;;;;;11.60;6.65;;;;;;;15.81;100.00;100978.16;4991286;28;20057;-60
2023/07/16 06:11:06;;;;;;;12.98;5.85;;;;;;;15.83;100.00;100984.28;4990124;28;20025;-61
2023/07/16 06:13:31;;;;;;;13.48;5.30;;;;;;;15.86;100.00;100978.22;4985251;28;20042;-61
2023/07/16 06:15:57;;;;;;;9.60;5.60;;;;;;;15.92;100.00;100975.66;4992653;28;20033;-61
2023/07/16 06:18:22;;;;;;;10.20;5.95;;;;;;;15.88;100.00;100980.84;4987596;28;20116;-61
2023/07/16 06:20:47;;;;;;;9.52;5.30;;;;;;;15.96;100.00;100974.84;4994265;28;20065;-60
2023/07/16 06:23:13;;;;;;;9.10;5.10;;;;;;;16.04;100.00;100975.00;4992536;28;20044;-60
2023/07/16 06:25:44;;;;;;;14.52;6.72;;;;;;;16.18;100.00;100987.31;4994029;28;20022;-60
2023/07/16 06:28:10;;;;;;;8.55;5.95;;;;;;;16.23;100.00;100985.63;4989428;28;20574;-60
2023/07/16 06:30:35;;;;;;;12.32;5.75;;;;;;;16.31;100.00;100981.38;4988507;28;20121;-61
2023/07/16 06:33:00;;;;;;;9.32;5.22;;;;;;;16.33;100.00;100986.63;5001139;28;20026;-60
2023/07/16 06:35:25;;;;;;;7.85;4.53;;;;;;;16.41;100.00;100989.28;4988259;28;20026;-60
2023/07/16 06:37:51;;;;;;;9.68;5.38;;;;;;;16.42;100.00;100985.84;4998245;28;20037;-61
2023/07/16 06:40:16;;;;;;;9.65;5.70;;;;;;;16.40;100.00;100983.22;5006936;28;20022;-61
2023/07/16 06:42:41;;;;;;;11.13;6.55;;;;;;;16.50;100.00;100988.50;5007292;28;20694;-60
2023/07/16 06:45:08;;;;;;;11.52;5.97;;;;;;;16.61;100.00;100991.22;5006334;28;20545;-61
2023/07/16 06:47:33;;;;;;;9.82;6.40;;;;;;;16.77;100.00;101002.72;5006482;28;20026;-61
2023/07/16 06:49:58;;;;;;;8.82;5.88;;;;;;;16.67;100.00;100996.53;5006310;28;20367;-60
2023/07/16 06:52:27;;;;;;;10.23;5.65;;;;;;;16.82;100.00;101008.00;5006809;28;20028;-60
2023/07/16 06:54:56;;;;;;;11.93;5.85;;;;;;;16.92;100.00;101001.97;5005325;28;20033;-60
2023/07/16 06:57:24;;;;;;;9.68;5.97;;;;;;;17.09;100.00;101009.09;4999159;28;20031;-61
2023/07/16 06:59:50;;;;;;;10.00;5.82;;;;;;;17.16;100.00;101021.41;4998221;28;20030;-62
2023/07/16 07:02:19;;;;;;;13.10;6.10;;;;;;;17.21;100.00;101022.31;4998718;28;20154;-61
2023/07/16 07:04:44;;;;;;;9.55;5.38;;;;;;;17.25;99.02;101026.69;4999976;28;20029;-61
2023/07/16 07:07:09;;;;;;;10.32;6.25;;;;;;;17.37;100.00;101015.44;5004585;28;20060;-60
2023/07/16 07:09:35;;;;;;;9.07;6.00;;;;;;;17.38;98.88;101029.38;4987876;28;20030;-61
2023/07/16 07:12:00;;;;;;;9.90;5.85;;;;;;;17.33;99.76;101015.38;5000633;28;20040;-60
2023/07/16 07:14:26;;;;;;;8.80;6.55;;;;;;;17.32;98.32;101026.75;5000543;28;20076;-60
2023/07/16 07:16:51;;;;;;;9.60;6.63;;;;;;;17.32;98.95;101031.97;4998057;28;20022;-60
2023/07/16 07:19:16;;;;;;;9.13;6.28;;;;;;;17.56;98.50;101033.00;5003721;28;20026;-61
2023/07/16 07:21:41;;;;;;;8.02;5.95;;;;;;;17.43;94.42;101034.66;5004865;28;20022;-60
2023/07/16 07:24:07;;;;;;;11.05;6.60;;;;;;;17.53;96.64;101036.47;5005545;28;20046;-61
2023/07/16 07:26:32;;;;;;;22.67;6.50;;;;;;;17.84;96.06;101030.53;5006090;28;20037;-61
2023/07/16 07:28:57;;;;;;;9.77;6.03;;;;;;;18.14;97.76;101034.16;5006254;28;20029;-60
2023/07/16 07:31:23;;;;;;;9.45;6.22;;;;;;;18.36;93.85;101031.63;5005401;28;20387;-61
2023/07/16 07:33:48;;;;;;;10.50;6.07;;;;;;;18.56;94.94;101042.16;5002785;28;20030;-61
2023/07/16 07:36:13;;;;;;;9.80;5.90;;;;;;;18.62;91.73;101046.53;4995775;28;20029;-60
2023/07/16 07:38:38;;;;;;;10.35;6.35;;;;;;;18.65;90.29;101041.31;5004943;28;20213;-62
2023/07/16 07:41:07;;;;;;;7.68;6.07;;;;;;;18.56;89.49;101046.53;4989772;28;20077;-60
2023/07/16 07:43:32;;;;;;;8.70;5.90;;;;;;;18.71;91.21;101045.66;4990469;28;20136;-61
2023/07/16 07:45:58;;;;;;;8.88;6.10;;;;;;;18.70;90.46;101039.56;4991436;28;20496;-61
2023/07/16 07:48:23;;;;;;;9.52;5.53;;;;;;;18.81;91.32;101051.81;4996908;28;20076;-60
2023/07/16 07:50:48;;;;;;;9.43;5.78;;;;;;;18.76;89.87;101061.44;4999394;28;20030;-61
2023/07/16 07:53:18;;;;;;;9.88;5.63;;;;;;;18.84;90.62;101057.06;5000955;28;20068;-60
2023/07/16 07:55:44;;;;;;;10.13;5.68;;;;;;;18.99;89.84;101055.31;4999349;28;20157;-61
2023/07/16 07:58:09;;;;;;;11.70;5.93;;;;;;;19.05;87.55;101057.97;5001008;28;20029;-61
2023/07/16 08:00:35;;;;;;;8.48;5.93;;;;;;;19.05;86.03;101055.34;4998695;28;20098;-61
2023/07/16 08:03:00;;;;;;;9.85;5.43;;;;;;;18.85;86.28;101056.19;5000952;28;20557;-61
2023/07/16 08:05:25;;;;;;;7.25;5.72;;;;;;;19.07;89.44;101053.56;4999871;28;20042;-60
2023/07/16 08:07:52;;;;;;;6.65;5.10;;;;;;;19.23;85.91;101053.59;5005504;28;20393;-61
2023/07/16 08:10:17;;;;;;;9.50;5.93;;;;;;;19.53;87.17;101047.44;5010292;28;20022;-62
2023/07/16 08:12:42;;;;;;;8.43;6.20;;;;;;;19.85;88.39;101058.72;5010514;28;20548;-61
2023/07/16 08:15:13;;;;;;;7.55;4.75;;;;;;;20.09;85.98;101056.94;5009515;28;20030;-61
2023/07/16 08:17:38;;;;;;;;;;;;;;;20.46;84.34;101060.22;4995474;28;20117;-60
2023/07/16 08:20:05;;;;;;;7.30;5.13;;;;;;;20.23;79.56;101058.59;4995153;28;20000;-62
2023/07/16 08:22:30;;;;;;;9.77;5.63;;;;;;;20.22;81.55;101057.72;4995857;28;20114;-62
2023/07/16 08:24:55;;;;;;;8.77;5.25;;;;;;;20.39;79.79;101065.53;4994613;28;20113;-61
2023/07/16 08:27:20;;;;;;;7.95;5.03;;;;;;;20.01;77.90;101071.81;4997077;28;20033;-62
2023/07/16 08:29:46;;;;;;;8.48;5.50;;;;;;;20.12;78.88;101070.06;4995802;28;20702;-61
2023/07/16 08:32:11;;;;;;;8.65;5.43;;;;;;;20.37;79.68;101062.03;4998920;28;20262;-62
2023/07/16 08:34:36;;;;;;;8.27;4.68;;;;;;;20.75;78.97;101061.81;4996082;28;20088;-61
2023/07/16 08:37:01;;;;;;;6.47;4.88;;;;;;;21.00;76.08;101066.91;5001147;28;20043;-62
2023/07/16 08:39:27;;;;;;;7.97;5.40;;;;;;;21.35;77.96;101063.09;5007601;28;20070;-61
2023/07/16 08:41:53;;;;;;;7.78;4.93;;;;;;;21.63;77.53;101069.84;5006415;28;20125;-60
2023/07/16 08:44:19;;;;;;;7.50;4.97;;;;;;;21.83;73.91;101069.66;4989863;28;20493;-62
2023/07/16 08:46:45;;;;;;;8.13;4.18;;;;;;;21.96;71.07;101069.53;4990266;28;20076;-61
2023/07/16 08:49:11;;;;;;;9.60;4.75;;;;;;;22.10;71.09;101069.34;5000026;28;20413;-60
2023/07/16 08:51:37;;;;;;;9.35;4.95;;;;;;;21.47;69.48;101077.03;4992994;28;20030;-61
2023/07/16 08:54:03;;;;;;;7.30;4.63;;;;;;;21.39;72.71;101073.63;5000295;28;20502;-61
2023/07/16 08:56:28;;;;;;;12.05;5.22;;;;;;;21.46;72.77;101076.16;4992739;28;20033;-61
2023/07/16 08:58:57;;;;;;;8.32;4.22;;;;;;;21.40;73.81;101080.63;4990012;28;20030;-61
2023/07/16 09:01:23;;;;;;;8.27;4.35;;;;;;;21.49;71.29;101075.28;5003418;28;20029;-63
2023/07/16 09:03:50;;;;;;;6.63;4.57;;;;;;;21.83;73.58;101084.63;4998679;28;20034;-62
2023/07/16 09:06:16;;;;;;;6.88;4.80;;;;;;;22.11;71.26;101088.69;4994173;28;20017;-61
2023/07/16 09:08:41;;;;;;;15.93;4.40;;;;;;;21.56;69.93;101091.88;5008158;28;20037;-61
2023/07/16 09:11:12;;;;;;;7.50;4.28;;;;;;;21.76;69.91;101088.16;4997306;28;20026;-61
2023/07/16 09:13:37;;;;;;;7.65;4.18;;;;;;;21.80;69.93;101093.41;5008278;28;20112;-61
2023/07/16 09:16:02;;;;;;;7.25;5.18;;;;;;;21.69;71.57;101097.91;5008837;28;20113;-61
2023/07/16 09:18:28;;;;;;;5.65;3.92;;;;;;;21.53;70.06;101087.53;4994039;28;20023;-61
2023/07/16 09:20:57;;;;;;;7.03;4.55;;;;;;;21.35;72.90;101099.97;4989235;28;20026;-61
2023/07/16 09:23:27;;;;;;;7.38;3.90;;;;;;;21.50;72.55;101102.50;4989295;28;20450;-61
2023/07/16 09:25:53;;;;;;;5.32;4.15;;;;;;;21.53;69.22;101107.75;4999091;28;20123;-61
2023/07/16 09:28:19;;;;;;;4.65;3.80;;;;;;;21.51;70.09;101102.50;5007899;28;20014;-61
2023/07/16 09:30:46;;;;;;;10.00;4.75;;;;;;;21.13;69.71;101103.69;4998858;28;20076;-61
2023/07/16 09:33:16;;;;;;;6.50;4.40;;;;;;;21.00;69.77;101098.53;5000637;28;20010;-62
2023/07/16 09:35:42;;;;;;;5.38;3.92;;;;;;;21.40;72.94;101092.06;5000466;28;20367;-62
2023/07/16 09:38:12;;;;;;;6.47;4.28;;;;;;;21.59;70.77;101100.66;5006490;28;20026;-62
2023/07/16 09:40:38;;;;;;;7.65;4.10;;;;;;;21.73;68.75;101115.44;4990104;28;20089;-62
2023/07/16 09:43:04;;;;;;;5.72;4.20;;;;;;;21.69;70.32;101103.19;4993428;28;20064;-62
2023/07/16 09:45:30;;;;;;;7.35;4.47;;;;;;;21.87;70.54;101111.81;4997805;28;20052;-61
2023/07/16 09:47:55;;;;;;;8.68;4.30;;;;;;;21.81;68.43;101108.38;4993994;28;20026;-62
2023/07/16 09:50:23;;;;;;;9.18;4.30;;;;;;;21.60;68.24;101109.44;4999018;28;20030;-61
2023/07/16 09:52:49;;;;;;;5.15;4.10;;;;;;;21.50;67.62;101108.63;4993481;28;20064;-62
2023/07/16 09:55:16;;;;;;;6.55;3.72;;;;;;;21.43;70.19;101117.47;4998406;28;20024;-61
2023/07/16 09:57:43;;;;;;;7.18;4.40;;;;;;;21.14;69.61;101116.00;4993806;28;20054;-61
2023/07/16 10:00:13;;;;;;;7.43;3.92;;;;;;;20.78;69.22;101124.13;4998247;28;20042;-62
2023/07/16 10:02:40;;;;;;;8.43;3.78;;;;;;;20.58;70.66;101123.31;4994497;28;20022;-61
2023/07/16 10:05:25;;;;;;;4.55;3.40;;;;;;;20.48;72.40;101137.41;5005508;28;20018;-61
2023/07/16 10:07:53;;;;;;;6.30;3.97;;;;;;;20.53;72.68;101133.00;5000963;28;20044;-62
2023/07/16 10:10:18;;;;;;;8.40;4.32;;;;;;;20.42;74.14;101133.06;4993987;28;20022;-61
2023/07/16 10:12:56;;;;;;;8.48;4.13;;;;;;;20.59;73.67;101140.88;4987666;28;20033;-62
2023/07/16 10:15:26;;;;;;;7.80;4.10;;;;;;;20.70;73.69;101140.84;4988722;28;20540;-61
2023/07/16 10:17:52;;;;;;;8.77;4.80;;;;;;;20.59;71.92;101138.25;4988587;28;20030;-61
2023/07/16 10:20:32;;;;;;;8.38;4.88;;;;;;;20.69;74.36;101148.72;4988625;28;20049;-62
2023/07/16 10:22:58;;;;;;;7.43;4.90;;;;;;;20.58;74.05;101146.16;4988313;28;20419;-61
2023/07/16 10:25:26;;;;;;;12.20;5.60;;;;;;;20.47;74.18;101143.59;4987688;28;20231;-61
2023/07/16 10:27:52;;;;;;;6.22;4.70;;;;;;;20.53;75.38;101154.06;4988027;28;20030;-61
2023/07/16 10:30:18;;;;;;;7.88;4.35;;;;;;;20.86;77.69;101156.53;5007172;28;20153;-61
2023/07/16 10:32:45;;;;;;;6.47;4.15;;;;;;;21.06;75.89;101164.34;5007596;28;20473;-61
2023/07/16 10:35:11;;;;;;;9.27;5.07;;;;;;;21.07;74.26;101158.19;4994691;28;20422;-61
2023/07/16 10:37:37;;;;;;;9.30;4.72;;;;;;;21.09;73.14;101156.41;5007417;28;20108;-61
2023/07/16 10:40:03;;;;;;;5.95;4.40;;;;;;;21.34;73.28;101150.94;4993951;28;20154;-61
2023/07/16 10:42:29;;;;;;;5.78;4.05;;;;;;;21.74;74.16;101154.13;4999823;28;20454;-61
2023/07/16 10:44:58;;;;;;;4.90;4.38;;;;;;;22.10;71.79;101158.16;4988613;28;20030;-61
2023/07/16 10:47:29;;;;;;;7.28;4.32;;;;;;;22.20;71.77;101151.88;4988329;28;20069;-62
2023/07/16 10:49:54;;;;;;;5.15;4.30;;;;;;;22.13;68.98;101166.03;4988460;28;20056;-62
2023/07/16 10:52:22;;;;;;;7.60;4.05;;;;;;;22.03;68.37;101160.88;4988392;28;20046;-61
2023/07/16 10:54:49;;;;;;;5.28;3.50;;;;;;;21.94;67.64;101166.25;4987992;28;20045;-62
2023/07/16 10:57:16;;;;;;;4.35;3.70;;;;;;;21.66;67.06;101167.34;4988208;28;20065;-61
2023/07/16 10:59:43;;;;;;;5.85;3.90;;;;;;;21.27;68.48;101164.19;4988609;28;20072;-61
2023/07/16 11:02:10;;;;;;;5.00;4.28;;;;;;;21.38;70.84;101172.00;4988475;28;20034;-61
2023/07/16 11:04:35;;;;;;;6.55;4.28;;;;;;;21.38;71.23;101174.63;4988328;28;20018;-62
2023/07/16 11:07:07;;;;;;;7.32;3.72;;;;;;;21.30;70.51;101172.94;4988263;28;20037;-61
2023/07/16 11:09:33;;;;;;;5.78;3.83;;;;;;;21.21;71.01;101186.16;4995663;28;20453;-61
2023/07/16 11:12:08;;;;;;;6.43;3.88;;;;;;;21.07;72.49;101189.78;4993362;28;20117;-62
2023/07/16 11:14:34;;;;;;;6.10;4.40;;;;;;;20.84;72.19;101187.25;4988471;28;20026;-61